DTTD

Remada Air Base Airport

Remada, Tunisia
METAR DTTD 092100Z AUTO 28005KT 250V340 NCD 13/05 Q1026
Observed Flight Rules
Dec-9 @ 21:00 UTC (41 minutes ago)
Wind Clouds
280° at 5 knots
  • Clear skies
Temperatures Readings
Current 13°C / 55°F
Dewpoint 5°C / 41°F
Humidity 59%
Altimeter 30.3" Hg
Pressure 1026 hPa
Elevation 301
METAR DTTD 092100Z AUTO 28005KT 250V340 NCD 13/05 Q1026
Observed Flight Rules
Dec-9 @ 21:00 UTC
(41 minutes ago)
Wind
280° at 5 knots
Clouds
  • Clear skies
Temperature Dewpoint
13°C / 55°F 5°C / 41°F
Humidity Altimeter Pressure
59% 30.3" Hg 1026 hPa